Time;durP1;ratioP1;P1;durP2;ratioP2;P2;SDS_P1;SDS_P2;PMS_P1;PMS_P2;Temp;Humidity;BMP_temperature;BMP_pressure;BME280_temperature;BME280_humidity;BME280_pressure;Samples;Min_cycle;Max_cycle;Signal;HPM_P1;HPM_P2
2022/07/08 00:00:22;;;;;;;1.30;0.70;;;;;;;18.96;100.00;102324.22;5112185;28;20046;-84
2022/07/08 00:02:48;;;;;;;0.77;0.60;;;;;;;18.86;100.00;102329.13;5103374;27;20055;-84
2022/07/08 00:05:15;;;;;;;1.17;0.70;;;;;;;18.74;100.00;102321.72;5099313;28;20048;-85
2022/07/08 00:07:42;;;;;;;1.98;0.75;;;;;;;18.69;100.00;102345.78;5112703;28;20047;-85
2022/07/08 00:10:09;;;;;;;0.77;0.60;;;;;;;18.64;100.00;102337.19;5095116;28;20474;-85
2022/07/08 00:12:36;;;;;;;1.80;0.80;;;;;;;18.56;100.00;102324.28;5108971;28;20055;-85
2022/07/08 00:15:04;;;;;;;1.80;0.70;;;;;;;18.50;100.00;102329.00;5094265;28;20054;-84
2022/07/08 00:17:30;;;;;;;1.77;0.80;;;;;;;18.52;100.00;102330.69;5112196;28;20058;-85
2022/07/08 00:19:57;;;;;;;1.45;0.80;;;;;;;18.31;100.00;102329.84;5094408;28;20043;-85
2022/07/08 00:22:25;;;;;;;2.65;1.20;;;;;;;18.47;100.00;102337.09;5093056;28;20134;-84
2022/07/08 00:24:52;;;;;;;1.80;0.80;;;;;;;18.68;100.00;102335.25;5093707;28;20130;-84
2022/07/08 00:27:19;;;;;;;1.38;0.70;;;;;;;18.84;100.00;102333.66;5111476;28;20054;-84
2022/07/08 00:29:46;;;;;;;2.25;0.80;;;;;;;18.68;100.00;102332.59;5093487;28;20050;-85
2022/07/08 00:32:13;;;;;;;2.25;0.90;;;;;;;18.68;100.00;102317.56;5098054;27;20392;-85
2022/07/08 00:34:48;;;;;;;1.48;0.80;;;;;;;18.56;100.00;102303.06;5096313;28;20161;-84
2022/07/08 00:37:14;;;;;;;2.03;1.00;;;;;;;18.52;100.00;102305.91;5094540;28;20059;-84
2022/07/08 00:39:41;;;;;;;1.95;0.90;;;;;;;18.32;100.00;102293.59;5090784;28;20123;-85
2022/07/08 00:42:08;;;;;;;0.98;0.70;;;;;;;18.52;100.00;102322.72;5093664;28;20054;-85
2022/07/08 00:44:35;;;;;;;1.58;0.80;;;;;;;18.49;100.00;102317.53;5094072;28;20051;-85
2022/07/08 00:47:02;;;;;;;1.20;0.70;;;;;;;18.32;100.00;102314.81;5094277;28;20356;-84
2022/07/08 00:49:28;;;;;;;1.95;0.80;;;;;;;18.24;100.00;102320.47;5112919;28;20066;-84
2022/07/08 00:51:56;;;;;;;1.08;0.70;;;;;;;18.13;100.00;102325.34;5112215;28;20481;-85
2022/07/08 00:54:24;;;;;;;1.40;0.90;;;;;;;18.16;100.00;102309.31;5087739;28;20059;-85
2022/07/08 00:56:51;;;;;;;1.10;0.60;;;;;;;18.26;100.00;102355.72;5112598;28;20422;-85
2022/07/08 00:59:19;;;;;;;1.38;0.80;;;;;;;17.93;100.00;102321.78;5093737;28;20046;-85
2022/07/08 01:01:46;;;;;;;1.45;0.70;;;;;;;17.90;100.00;102337.84;5094090;28;20130;-84
2022/07/08 01:04:13;;;;;;;3.45;0.85;;;;;;;17.98;100.00;102342.81;5107107;28;20474;-85
2022/07/08 01:06:41;;;;;;;1.77;0.80;;;;;;;17.78;100.00;102328.59;5094025;28;20055;-84
2022/07/08 01:09:08;;;;;;;2.35;0.82;;;;;;;17.97;100.00;102335.75;5093704;28;20131;-85
2022/07/08 01:11:35;;;;;;;3.58;0.95;;;;;;;17.76;100.00;102298.66;5092662;28;20051;-84
2022/07/08 01:14:04;;;;;;;1.17;0.80;;;;;;;17.95;100.00;102345.56;5109067;28;20143;-84
2022/07/08 01:16:30;;;;;;;1.83;0.70;;;;;;;17.91;100.00;102318.34;5092983;28;20059;-85
2022/07/08 01:18:57;;;;;;;1.45;0.70;;;;;;;18.13;100.00;102328.88;5095437;28;20135;-85
2022/07/08 01:21:24;;;;;;;1.13;0.70;;;;;;;18.17;100.00;102324.31;5126532;28;20130;-85
2022/07/08 01:23:51;;;;;;;1.42;0.70;;;;;;;18.15;100.00;102328.78;5107111;28;20051;-84
2022/07/08 01:26:18;;;;;;;3.17;0.93;;;;;;;17.90;100.00;102332.53;5102748;28;20521;-84
2022/07/08 01:28:45;;;;;;;1.42;0.70;;;;;;;17.97;100.00;102331.34;5113672;28;20047;-85
2022/07/08 01:31:12;;;;;;;3.45;0.95;;;;;;;18.14;100.00;102332.41;5098972;28;20043;-85
2022/07/08 01:33:39;;;;;;;3.45;0.90;;;;;;;18.01;100.00;102326.78;5101007;28;20051;-85
2022/07/08 01:36:06;;;;;;;2.38;0.98;;;;;;;18.14;100.00;102329.75;5124247;28;20051;-84
2022/07/08 01:38:33;;;;;;;0.80;0.70;;;;;;;18.16;100.00;102322.56;5117296;28;20050;-85
2022/07/08 01:41:00;;;;;;;2.42;0.70;;;;;;;18.30;100.00;102335.22;5114291;28;20043;-84
2022/07/08 01:43:26;;;;;;;1.90;0.80;;;;;;;17.99;100.00;102294.19;5099348;28;20047;-84
2022/07/08 01:45:53;;;;;;;2.22;0.88;;;;;;;18.25;100.00;102310.69;5113376;28;20043;-84
2022/07/08 01:48:20;;;;;;;0.82;0.70;;;;;;;18.13;100.00;102312.97;5113851;28;20053;-84
2022/07/08 01:50:47;;;;;;;4.47;0.90;;;;;;;18.30;100.00;102306.06;5108438;28;20043;-84
2022/07/08 01:53:14;;;;;;;1.20;0.70;;;;;;;18.27;100.00;102309.69;5131436;27;20047;-85
2022/07/08 01:55:41;;;;;;;1.60;0.80;;;;;;;18.18;100.00;102287.13;5103569;27;20051;-85
2022/07/08 01:58:08;;;;;;;1.92;0.90;;;;;;;18.34;100.00;102302.31;5117910;27;20051;-85
2022/07/08 02:00:34;;;;;;;3.25;1.08;;;;;;;18.38;100.00;102310.09;5131808;27;20036;-85
2022/07/08 02:03:01;;;;;;;2.25;0.93;;;;;;;18.19;100.00;102315.34;5107750;27;20051;-85
2022/07/08 02:05:28;;;;;;;1.15;0.68;;;;;;;18.17;100.00;102313.72;5101546;28;20083;-85
2022/07/08 02:07:55;;;;;;;1.10;0.70;;;;;;;18.03;100.00;102303.72;5123016;27;20055;-85
2022/07/08 02:10:22;;;;;;;1.85;0.80;;;;;;;17.76;100.00;102271.28;5134565;27;20440;-85
2022/07/08 02:12:48;;;;;;;1.42;0.80;;;;;;;17.94;100.00;102285.56;5123726;27;20067;-85
2022/07/08 02:15:15;;;;;;;1.15;0.70;;;;;;;18.09;100.00;102303.44;5109823;27;20051;-85
2022/07/08 02:17:43;;;;;;;0.93;0.60;;;;;;;17.90;100.00;102274.25;5102432;27;20039;-85
2022/07/08 02:20:12;;;;;;;0.98;0.70;;;;;;;18.12;100.00;102284.75;5124150;27;20047;-85
2022/07/08 02:22:40;;;;;;;1.40;0.70;;;;;;;18.17;100.00;102309.25;5104112;28;20044;-85
2022/07/08 02:25:08;;;;;;;1.55;0.70;;;;;;;17.90;100.00;102305.16;5096926;28;20406;-85
2022/07/08 02:27:35;;;;;;;1.05;0.77;;;;;;;17.52;100.00;102297.91;5111738;27;20047;-85
2022/07/08 02:30:03;;;;;;;1.15;0.80;;;;;;;17.40;100.00;102303.72;5109147;28;20051;-85
2022/07/08 02:32:30;;;;;;;1.00;0.73;;;;;;;17.38;100.00;102321.44;5107556;27;20134;-85
2022/07/08 02:34:57;;;;;;;1.80;0.90;;;;;;;17.07;100.00;102312.13;5102290;27;20058;-85
2022/07/08 02:37:24;;;;;;;1.63;0.82;;;;;;;17.11;100.00;102307.56;5117072;27;20480;-85
2022/07/08 02:39:50;;;;;;;1.67;0.90;;;;;;;17.25;100.00;102316.66;5101754;27;20409;-85
2022/07/08 02:42:17;;;;;;;1.92;0.80;;;;;;;17.07;100.00;102307.69;5102437;28;20048;-85
2022/07/08 02:44:44;;;;;;;1.10;0.70;;;;;;;17.05;100.00;102291.00;5124756;27;20407;-85
2022/07/08 02:47:11;;;;;;;1.40;0.80;;;;;;;17.10;100.00;102296.09;5105023;27;20502;-85
2022/07/08 02:49:37;;;;;;;2.03;0.80;;;;;;;17.00;100.00;102284.19;5134415;27;20057;-85
2022/07/08 02:52:04;;;;;;;2.05;0.80;;;;;;;17.11;100.00;102303.13;5095816;28;20548;-85
2022/07/08 02:54:31;;;;;;;2.42;0.88;;;;;;;17.18;100.00;102301.94;5095683;28;20052;-85
2022/07/08 02:56:58;;;;;;;1.17;0.70;;;;;;;17.02;100.00;102292.91;5096145;28;20047;-85
2022/07/08 02:59:25;;;;;;;1.95;0.80;;;;;;;17.08;100.00;102309.38;5120089;27;20050;-85
2022/07/08 03:01:52;;;;;;;1.88;0.70;;;;;;;17.10;100.00;102319.91;5116087;27;20047;-85
2022/07/08 03:04:19;;;;;;;1.67;0.80;;;;;;;17.11;100.00;102312.84;5124874;27;20067;-85
2022/07/08 03:06:45;;;;;;;1.40;0.77;;;;;;;16.95;100.00;102312.59;5110399;27;20047;-85
2022/07/08 03:09:12;;;;;;;1.05;0.60;;;;;;;16.81;100.00;102299.88;5114071;28;20058;-85
2022/07/08 03:11:39;;;;;;;0.90;0.70;;;;;;;16.59;100.00;102298.06;5125565;27;20054;-84
2022/07/08 03:14:06;;;;;;;2.83;0.80;;;;;;;16.70;100.00;102311.72;5112933;28;20054;-85
2022/07/08 03:16:33;;;;;;;0.95;0.70;;;;;;;16.81;100.00;102298.09;5094055;28;20054;-85
2022/07/08 03:19:00;;;;;;;1.60;0.77;;;;;;;16.81;100.00;102298.09;5108945;28;20055;-85
2022/07/08 03:21:27;;;;;;;1.73;0.80;;;;;;;16.81;100.00;102308.66;5095043;28;20542;-85
2022/07/08 03:23:53;;;;;;;2.30;0.75;;;;;;;16.75;100.00;102292.16;5091397;28;20830;-85
2022/07/08 03:26:20;;;;;;;3.50;1.00;;;;;;;16.74;100.00;102308.97;5103449;27;20377;-85
2022/07/08 03:28:47;;;;;;;1.67;0.80;;;;;;;16.66;100.00;102303.97;5104922;28;20043;-85
2022/07/08 03:31:13;;;;;;;1.80;0.77;;;;;;;16.61;100.00;102295.34;5112334;27;20066;-85
2022/07/08 03:33:40;;;;;;;1.13;0.70;;;;;;;16.82;100.00;102315.69;5113175;27;20043;-85
2022/07/08 03:36:08;;;;;;;1.13;0.70;;;;;;;16.72;100.00;102314.31;5115756;27;20051;-85
2022/07/08 03:38:35;;;;;;;1.23;0.68;;;;;;;16.66;100.00;102318.06;5107619;28;20054;-85
2022/07/08 03:41:22;;;;;;;1.40;0.80;;;;;;;16.48;100.00;102310.81;5112652;28;20535;-85
2022/07/08 03:43:51;;;;;;;1.60;0.80;;;;;;;16.66;100.00;102306.59;5103135;27;20533;-85
2022/07/08 03:46:20;;;;;;;2.00;0.80;;;;;;;16.82;100.00;102317.44;5132798;27;20051;-86
2022/07/08 03:48:47;;;;;;;1.38;0.77;;;;;;;16.69;100.00;102311.78;5103283;27;20043;-85
2022/07/08 03:51:14;;;;;;;1.35;0.73;;;;;;;16.70;100.00;102300.28;5101505;28;20048;-85
2022/07/08 03:53:42;;;;;;;0.88;0.70;;;;;;;16.68;100.00;102315.38;5094661;28;20047;-85
2022/07/08 03:56:10;;;;;;;2.25;0.80;;;;;;;16.52;100.00;102317.72;5125309;27;20074;-85
2022/07/08 03:58:37;;;;;;;1.45;0.68;;;;;;;16.51;100.00;102313.34;5115058;27;20051;-85
2022/07/08 04:01:05;;;;;;;2.08;0.80;;;;;;;16.57;100.00;102317.53;5115129;27;20769;-85
2022/07/08 04:03:32;;;;;;;1.45;0.88;;;;;;;16.49;100.00;102317.84;5109984;28;20055;-85
2022/07/08 04:05:59;;;;;;;1.35;0.77;;;;;;;16.59;100.00;102298.06;5094429;28;20062;-85
2022/07/08 04:08:26;;;;;;;1.98;0.70;;;;;;;16.79;100.00;102296.44;5093975;28;20050;-85
2022/07/08 04:10:54;;;;;;;1.42;0.70;;;;;;;17.01;100.00;102299.97;5119174;27;20069;-85
2022/07/08 04:13:23;;;;;;;1.80;0.80;;;;;;;16.80;100.00;102282.28;5112244;27;20057;-85
2022/07/08 04:15:51;;;;;;;1.88;0.90;;;;;;;17.16;100.00;102317.03;5097220;28;20043;-85
2022/07/08 04:18:18;;;;;;;1.33;0.73;;;;;;;17.67;100.00;102311.41;5113037;28;20052;-85
2022/07/08 04:20:45;;;;;;;3.00;0.80;;;;;;;18.54;100.00;102307.59;5101417;28;20101;-85
2022/07/08 04:23:13;;;;;;;1.83;0.85;;;;;;;19.47;100.00;102324.41;5123334;27;20134;-85
2022/07/08 04:25:40;;;;;;;1.42;0.77;;;;;;;19.85;100.00;102314.53;5116046;27;20439;-86
2022/07/08 04:28:07;;;;;;;0.98;0.70;;;;;;;20.20;100.00;102314.50;5094539;28;20051;-86
2022/07/08 04:30:34;;;;;;;2.13;0.88;;;;;;;20.34;100.00;102307.56;5093835;28;20054;-86
2022/07/08 04:33:01;;;;;;;2.53;0.60;;;;;;;20.98;100.00;102297.81;5125545;27;20046;-86
2022/07/08 04:35:27;;;;;;;0.95;0.60;;;;;;;19.66;100.00;102311.94;5104570;28;20397;-86
2022/07/08 04:37:54;;;;;;;2.25;0.70;;;;;;;20.10;100.00;102318.56;5108172;28;20055;-86
2022/07/08 04:40:27;;;;;;;0.85;0.60;;;;;;;20.24;100.00;102323.16;5120462;28;20420;-86
2022/07/08 04:42:54;;;;;;;1.50;0.65;;;;;;;20.33;100.00;102316.47;5102350;28;20098;-85
2022/07/08 04:45:21;;;;;;;1.35;0.73;;;;;;;19.48;100.00;102319.03;5115120;28;20059;-86
2022/07/08 04:47:48;;;;;;;0.77;0.50;;;;;;;18.92;100.00;102298.78;5133288;28;20086;-86
2022/07/08 04:50:16;;;;;;;2.83;0.75;;;;;;;18.89;100.00;102318.38;5114351;28;20138;-85
2022/07/08 04:52:42;;;;;;;1.48;0.60;;;;;;;19.07;100.00;102313.09;5122423;28;20378;-85
2022/07/08 04:55:27;;;;;;;0.85;0.60;;;;;;;18.86;100.00;102315.00;5109070;28;20385;-85
2022/07/08 04:57:55;;;;;;;0.73;0.60;;;;;;;19.29;100.00;102324.41;5107105;28;20606;-86
2022/07/08 05:00:22;;;;;;;1.42;0.70;;;;;;;19.12;100.00;102311.06;5114126;28;20035;-85
2022/07/08 05:02:49;;;;;;;2.03;0.80;;;;;;;18.78;100.00;102317.97;5122564;28;20047;-85
2022/07/08 05:05:18;;;;;;;3.20;0.70;;;;;;;18.50;100.00;102305.13;5115082;28;20088;-85
2022/07/08 05:07:45;;;;;;;1.20;0.68;;;;;;;18.46;100.00;102300.91;5113815;28;20043;-85
2022/07/08 05:10:12;;;;;;;2.30;0.80;;;;;;;18.50;100.00;102299.84;5098174;28;20051;-85
2022/07/08 05:12:38;;;;;;;1.08;0.70;;;;;;;18.89;100.00;102333.41;5119536;28;20055;-85
2022/07/08 05:15:06;;;;;;;0.60;0.60;;;;;;;19.05;100.00;102321.16;5132695;28;20067;-85
2022/07/08 05:17:32;;;;;;;2.28;0.60;;;;;;;19.06;100.00;102324.66;5100476;28;20126;-85
2022/07/08 05:19:59;;;;;;;0.60;0.60;;;;;;;19.01;100.00;102326.69;5101944;28;20062;-86
2022/07/08 05:22:26;;;;;;;1.50;0.80;;;;;;;19.24;100.00;102321.09;5094059;28;20043;-85
2022/07/08 05:24:53;;;;;;;1.55;0.70;;;;;;;19.31;100.00;102313.69;5104313;28;20043;-85
2022/07/08 05:27:20;;;;;;;1.55;0.63;;;;;;;19.44;100.00;102319.25;5115063;27;20057;-85
2022/07/08 05:29:47;;;;;;;1.23;0.70;;;;;;;19.58;100.00;102318.56;5130699;27;20656;-85
2022/07/08 05:32:14;;;;;;;1.42;0.70;;;;;;;19.45;100.00;102302.41;5108108;27;20039;-84
2022/07/08 05:34:44;;;;;;;1.80;0.80;;;;;;;19.34;100.00;102279.03;5111472;28;20054;-85
2022/07/08 05:37:12;;;;;;;1.48;0.60;;;;;;;19.33;100.00;102302.06;5102224;28;20187;-84
2022/07/08 05:39:40;;;;;;;0.90;0.60;;;;;;;19.68;100.00;102318.00;5127524;28;20107;-84
2022/07/08 05:42:08;;;;;;;2.17;0.90;;;;;;;19.13;100.00;102262.38;5122547;28;20118;-84
2022/07/08 05:44:38;;;;;;;1.73;0.63;;;;;;;19.33;100.00;102317.97;5124974;28;20139;-85
2022/07/08 05:47:07;;;;;;;1.20;0.70;;;;;;;19.02;100.00;102293.91;5120970;28;20051;-85
2022/07/08 05:49:35;;;;;;;0.75;0.60;;;;;;;19.22;100.00;102282.28;5105416;28;20051;-85
2022/07/08 05:52:06;;;;;;;1.73;0.80;;;;;;;19.46;100.00;102294.34;5094299;28;20079;-84
2022/07/08 05:54:34;;;;;;;3.63;0.80;;;;;;;19.75;100.00;102302.66;5130487;27;20062;-85
2022/07/08 05:57:02;;;;;;;0.50;0.50;;;;;;;19.79;100.00;102287.41;5106319;28;20064;-83
2022/07/08 05:59:29;;;;;;;0.75;0.60;;;;;;;19.39;100.00;102250.44;5101143;28;20556;-83
2022/07/08 06:01:55;;;;;;;0.70;0.60;;;;;;;19.63;100.00;102304.09;5108711;28;20043;-83
2022/07/08 06:04:24;;;;;;;1.38;0.60;;;;;;;19.61;100.00;102291.84;5115678;28;20081;-84
2022/07/08 06:06:51;;;;;;;1.55;0.60;;;;;;;19.67;100.00;102233.06;5125606;28;20048;-85
2022/07/08 06:09:18;;;;;;;1.35;0.70;;;;;;;19.73;100.00;102251.38;5125974;28;20052;-85
2022/07/08 06:11:45;;;;;;;0.70;0.55;;;;;;;20.05;100.00;102289.56;5124106;28;20062;-85
2022/07/08 06:14:12;;;;;;;1.52;0.77;;;;;;;19.79;100.00;102260.84;5119863;28;20474;-84
2022/07/08 06:16:41;;;;;;;1.45;0.70;;;;;;;19.56;100.00;102269.97;5101777;28;20083;-86
2022/07/08 06:19:09;;;;;;;1.05;0.60;;;;;;;20.08;100.00;102283.25;5125188;28;20124;-83
2022/07/08 06:21:36;;;;;;;0.77;0.60;;;;;;;20.10;100.00;102274.22;5100116;28;20074;-85
2022/07/08 06:24:03;;;;;;;2.60;0.60;;;;;;;20.52;100.00;102250.66;5111436;28;20123;-85
2022/07/08 06:26:30;;;;;;;0.50;0.50;;;;;;;21.51;100.00;102296.53;5104681;27;20065;-85
2022/07/08 06:28:57;;;;;;;1.15;0.60;;;;;;;21.86;100.00;102296.25;5135930;27;20139;-85
2022/07/08 06:31:24;;;;;;;1.65;0.50;;;;;;;21.52;100.00;102276.94;5116080;28;20051;-84
2022/07/08 06:33:56;;;;;;;1.38;0.60;;;;;;;21.34;100.00;102265.56;5106969;27;20114;-85
2022/07/08 06:36:36;;;;;;;1.10;0.60;;;;;;;21.64;100.00;102295.81;5120469;27;20513;-86
2022/07/08 06:39:05;;;;;;;1.13;0.60;;;;;;;22.06;100.00;102311.03;5110467;27;20057;-84
2022/07/08 06:41:31;;;;;;;1.90;0.55;;;;;;;21.27;100.00;102288.19;5106871;28;20079;-86
2022/07/08 06:43:59;;;;;;;0.73;0.50;;;;;;;21.32;100.00;102266.56;5104381;28;20054;-86
2022/07/08 06:46:26;;;;;;;1.15;0.60;;;;;;;21.29;100.00;102280.94;5107867;28;20544;-85
2022/07/08 06:48:54;;;;;;;0.60;0.50;;;;;;;21.42;100.00;102281.94;5098967;28;20079;-85
2022/07/08 06:51:21;;;;;;;0.95;0.60;;;;;;;21.14;100.00;102263.19;5116879;28;20036;-84
2022/07/08 06:56:35;;;;;;;0.60;0.60;;;;;;;22.74;100.00;102297.00;5109336;28;20063;-85
2022/07/08 06:59:02;;;;;;;1.13;0.52;;;;;;;23.30;100.00;102275.56;5123257;28;20446;-86
2022/07/08 07:01:28;;;;;;;2.75;0.60;;;;;;;23.73;100.00;102284.25;5103374;28;20063;-86
2022/07/08 07:04:03;;;;;;;0.63;0.50;;;;;;;24.54;100.00;102273.22;5131282;27;20081;-86
2022/07/08 07:06:31;;;;;;;0.98;0.60;;;;;;;23.91;99.24;102242.06;5123870;28;20059;-86
2022/07/08 07:08:58;;;;;;;0.55;0.50;;;;;;;24.25;100.00;102276.13;5117169;28;20047;-87
2022/07/08 07:11:39;;;;;;;1.65;0.60;;;;;;;24.64;93.67;102284.94;5118960;28;20478;-86
2022/07/08 07:14:20;;;;;;;0.38;0.32;;;;;;;24.47;92.89;102250.50;5113453;28;20036;-86
2022/07/08 07:16:47;;;;;;;1.48;0.57;;;;;;;23.86;100.00;102286.00;5122076;28;20043;-86
2022/07/08 07:19:15;;;;;;;1.02;0.47;;;;;;;23.71;100.00;102257.66;5125477;28;20052;-86
2022/07/08 07:21:43;;;;;;;0.60;0.32;;;;;;;23.53;98.93;102259.75;5124934;28;20074;-85
2022/07/08 07:24:11;;;;;;;1.13;0.43;;;;;;;23.76;98.92;102273.34;5137671;27;20077;-86
2022/07/08 07:26:38;;;;;;;0.45;0.40;;;;;;;23.53;100.00;102261.56;5115251;28;20051;-85
2022/07/08 07:29:11;;;;;;;0.95;0.40;;;;;;;24.20;100.00;102262.22;5108091;28;20070;-86
2022/07/08 07:31:41;;;;;;;0.40;0.40;;;;;;;23.83;99.94;102269.31;5126686;27;20083;-85
2022/07/08 07:34:11;;;;;;;0.30;0.30;;;;;;;23.75;100.00;102264.47;5116724;27;20047;-86
2022/07/08 07:36:39;;;;;;;0.88;0.45;;;;;;;23.72;94.75;102262.00;5107738;28;20046;-86
2022/07/08 07:39:23;;;;;;;1.45;0.50;;;;;;;23.66;100.00;102270.47;5107868;28;20048;-86
2022/07/08 07:41:52;;;;;;;0.70;0.50;;;;;;;24.02;100.00;102276.91;5118223;27;20039;-87
2022/07/08 07:44:19;;;;;;;0.43;0.40;;;;;;;23.47;98.03;102262.84;5147855;27;20089;-87
2022/07/08 07:46:46;;;;;;;2.63;0.60;;;;;;;23.69;96.88;102267.56;5113763;28;20126;-86
2022/07/08 07:49:26;;;;;;;1.60;0.60;;;;;;;23.19;100.00;102282.56;5106004;28;20535;-84
2022/07/08 07:51:54;;;;;;;2.17;0.75;;;;;;;22.90;100.00;102239.91;5104699;28;20058;-86
2022/07/08 07:54:33;;;;;;;1.45;0.52;;;;;;;23.15;100.00;102236.50;5113157;27;20069;-87
2022/07/08 07:57:02;;;;;;;1.52;0.60;;;;;;;23.59;100.00;102243.28;5115515;28;20436;-87
2022/07/08 07:59:45;;;;;;;0.68;0.55;;;;;;;23.30;100.00;102203.41;5126034;28;20073;-85
2022/07/08 08:02:25;;;;;;;1.10;0.43;;;;;;;23.79;100.00;102251.75;5115871;27;20031;-86
2022/07/08 08:05:06;;;;;;;0.60;0.50;;;;;;;24.23;100.00;102245.09;5122278;28;20058;-86
2022/07/08 08:07:33;;;;;;;1.67;0.50;;;;;;;24.06;100.00;102228.44;5125279;27;20044;-86
2022/07/08 08:10:01;;;;;;;1.13;0.55;;;;;;;24.30;93.79;102230.31;5132653;27;20123;-86
2022/07/08 08:12:29;;;;;;;1.05;0.40;;;;;;;24.46;86.35;102235.41;5128261;27;20044;-84
2022/07/08 08:15:09;;;;;;;1.75;0.70;;;;;;;24.56;87.18;102225.78;5105684;27;20047;-85
2022/07/08 08:17:42;;;;;;;3.88;0.68;;;;;;;23.92;85.23;102198.28;5126206;27;20073;-86
2022/07/08 08:20:12;;;;;;;0.30;0.30;;;;;;;24.75;85.97;102252.03;5102300;28;20038;-86
2022/07/08 08:22:40;;;;;;;1.48;0.52;;;;;;;24.74;86.17;102252.16;5124758;27;20103;-87
2022/07/08 08:25:29;;;;;;;0.77;0.45;;;;;;;24.44;84.57;102230.16;5106205;28;20044;-86
2022/07/08 08:27:56;;;;;;;0.65;0.50;;;;;;;24.57;86.22;102259.59;5125965;28;20047;-86
2022/07/08 08:30:37;;;;;;;1.95;0.60;;;;;;;24.29;83.28;102235.78;5102127;28;20039;-86
2022/07/08 08:33:21;;;;;;;1.10;0.50;;;;;;;24.68;81.21;102255.28;5103635;28;20043;-86
2022/07/08 08:35:56;;;;;;;0.88;0.50;;;;;;;24.35;82.77;102238.88;5123961;27;20077;-86
2022/07/08 08:38:31;;;;;;;1.30;0.55;;;;;;;24.14;81.12;102198.44;5128284;28;20059;-86
2022/07/08 08:41:04;;;;;;;0.73;0.40;;;;;;;24.56;80.79;102252.53;5100856;28;20071;-86
2022/07/08 08:43:32;;;;;;;1.27;0.50;;;;;;;24.26;84.03;102242.22;5108601;28;20069;-86
2022/07/08 08:46:02;;;;;;;1.08;0.50;;;;;;;23.98;78.84;102217.44;5131906;28;20040;-86
2022/07/08 08:48:45;;;;;;;0.52;0.50;;;;;;;24.42;82.19;102234.78;5104763;28;20039;-84
2022/07/08 08:51:20;;;;;;;2.17;0.55;;;;;;;24.16;81.32;102244.69;5120303;28;20063;-85
2022/07/08 08:54:04;;;;;;;2.15;0.68;;;;;;;24.02;81.15;102221.59;5106695;28;20093;-86
2022/07/08 08:56:34;;;;;;;2.10;0.60;;;;;;;23.99;78.33;102220.94;5128730;28;20047;-85
2022/07/08 08:59:03;;;;;;;0.88;0.50;;;;;;;24.22;79.75;102236.22;5112582;28;20119;-85
2022/07/08 09:01:35;;;;;;;1.17;0.47;;;;;;;24.26;79.70;102205.59;5103684;28;20086;-86
2022/07/08 09:04:10;;;;;;;1.63;0.60;;;;;;;24.11;79.28;102211.19;5120174;28;20055;-85
2022/07/08 09:06:39;;;;;;;1.45;0.63;;;;;;;24.22;80.96;102246.06;5113784;28;20082;-86
2022/07/08 09:09:07;;;;;;;2.33;0.55;;;;;;;24.07;79.99;102224.78;5109288;28;20060;-86
2022/07/08 09:11:34;;;;;;;1.90;0.65;;;;;;;24.59;81.08;102254.13;5111584;28;20099;-86
2022/07/08 09:14:18;;;;;;;0.80;0.50;;;;;;;24.67;79.48;102254.44;5096971;28;20131;-85
2022/07/08 09:17:17;;;;;;;0.52;0.47;;;;;;;24.55;83.83;102258.00;5119701;27;20067;-87
2022/07/08 09:19:50;;;;;;;1.20;0.50;;;;;;;24.44;87.19;102256.94;5104768;27;20043;-85
2022/07/08 09:22:24;;;;;;;1.13;0.50;;;;;;;23.98;89.40;102236.16;5129691;28;20163;-86
2022/07/08 09:25:05;;;;;;;1.45;0.60;;;;;;;24.03;94.56;102230.47;5112141;28;20061;-87
2022/07/08 09:27:35;;;;;;;1.80;0.57;;;;;;;23.94;97.36;102223.97;5115213;28;20074;-87
2022/07/08 09:30:16;;;;;;;1.20;0.50;;;;;;;23.45;100.00;102230.03;5132421;28;20358;-86
2022/07/08 09:33:01;;;;;;;2.08;0.60;;;;;;;23.38;100.00;102204.69;5120331;28;20128;-86
2022/07/08 09:35:35;;;;;;;1.08;0.52;;;;;;;23.94;96.86;102228.44;5113505;28;20126;-87
2022/07/08 09:38:04;;;;;;;0.98;0.60;;;;;;;24.13;93.12;102233.34;5113544;28;20063;-86
2022/07/08 09:40:35;;;;;;;2.38;0.65;;;;;;;23.79;95.34;102196.44;5113833;28;20059;-86
2022/07/08 09:43:11;;;;;;;1.02;0.50;;;;;;;23.56;100.00;102259.53;5098454;27;20071;-83
2022/07/08 09:45:52;;;;;;;1.05;0.70;;;;;;;23.67;100.00;102224.91;5103181;28;20062;-85
2022/07/08 09:48:29;;;;;;;2.00;0.80;;;;;;;24.05;100.00;102237.41;5099140;28;20636;-85
2022/07/08 09:50:59;;;;;;;2.03;0.70;;;;;;;24.71;100.00;102205.03;5126020;28;20138;-85
2022/07/08 09:53:40;;;;;;;2.50;0.70;;;;;;;25.68;92.82;102258.47;5107124;28;20055;-85
2022/07/08 09:56:08;;;;;;;3.63;0.50;;;;;;;26.06;85.20;102207.16;5121650;28;20079;-86
2022/07/08 09:58:36;;;;;;;3.63;0.70;;;;;;;26.11;78.72;102231.81;5127458;28;20456;-86
2022/07/08 10:01:06;;;;;;;2.38;0.60;;;;;;;25.47;79.15;102213.59;5111257;28;20047;-86
2022/07/08 10:03:35;;;;;;;2.05;0.70;;;;;;;25.37;75.35;102204.53;5105420;28;20067;-86
2022/07/08 10:06:04;;;;;;;2.58;0.60;;;;;;;25.18;78.06;102238.09;5110695;28;20055;-86
2022/07/08 10:08:31;;;;;;;1.02;0.55;;;;;;;25.23;74.08;102223.47;5127501;28;20460;-86
2022/07/08 10:11:03;;;;;;;1.45;0.50;;;;;;;24.93;74.42;102222.16;5127604;28;20051;-87
2022/07/08 10:13:32;;;;;;;0.40;0.40;;;;;;;24.73;75.19;102229.00;5114332;28;20119;-86
2022/07/08 10:16:04;;;;;;;0.52;0.43;;;;;;;24.66;74.77;102228.59;5094462;28;20052;-87
2022/07/08 10:18:49;;;;;;;0.55;0.40;;;;;;;24.96;75.75;102221.94;5111205;28;20048;-87
2022/07/08 10:21:28;;;;;;;1.15;0.50;;;;;;;24.90;73.76;102206.34;5119157;28;20075;-87
2022/07/08 10:23:56;;;;;;;1.40;0.65;;;;;;;24.82;75.53;102174.75;5105507;28;20052;-87
2022/07/08 10:26:31;;;;;;;0.88;0.50;;;;;;;25.67;73.07;102168.25;5106350;28;20058;-86
2022/07/08 10:29:13;;;;;;;0.95;0.50;;;;;;;25.61;69.00;102160.72;5109097;28;20047;-87
2022/07/08 10:31:51;;;;;;;1.42;0.50;;;;;;;25.85;69.82;102168.59;5122887;27;20130;-85
2022/07/08 10:34:28;;;;;;;0.40;0.40;;;;;;;25.76;71.18;102189.84;5129590;27;20051;-87
2022/07/08 10:37:10;;;;;;;0.40;0.40;;;;;;;25.49;68.13;102206.25;5114704;27;20504;-86
2022/07/08 10:39:41;;;;;;;0.38;0.38;;;;;;;25.76;71.26;102208.63;5105431;27;20100;-87
2022/07/08 10:42:10;;;;;;;1.10;0.50;;;;;;;26.09;67.29;102211.44;5098548;28;20111;-86
2022/07/08 10:44:43;;;;;;;0.63;0.40;;;;;;;25.73;63.56;102219.59;5111457;27;20073;-86
2022/07/08 10:47:13;;;;;;;0.40;0.40;;;;;;;26.11;64.23;102220.22;5108469;27;20057;-86
2022/07/08 10:49:48;;;;;;;1.25;0.63;;;;;;;25.94;64.53;102186.69;5133112;27;20550;-87
2022/07/08 10:52:17;;;;;;;0.90;0.40;;;;;;;25.82;61.30;102214.47;5120414;27;20099;-86
2022/07/08 10:54:46;;;;;;;0.43;0.40;;;;;;;26.01;61.26;102206.69;5118023;27;20119;-87
2022/07/08 10:57:22;;;;;;;0.95;0.40;;;;;;;26.02;60.36;102210.22;5099880;27;20114;-85
2022/07/08 11:00:13;;;;;;;0.40;0.40;;;;;;;26.34;58.86;102211.13;5132422;27;20071;-86
2022/07/08 11:02:42;;;;;;;1.35;0.43;;;;;;;26.14;59.99;102185.94;5129621;27;20049;-86
2022/07/08 11:05:42;;;;;;;1.15;0.40;;;;;;;25.83;59.83;102206.28;5108267;27;20067;-87
2022/07/08 11:08:20;;;;;;;0.40;0.40;;;;;;;25.05;59.39;102220.38;5127728;27;20069;-86
2022/07/08 11:10:51;;;;;;;0.43;0.40;;;;;;;24.64;59.50;102164.44;5106052;28;20103;-88
2022/07/08 11:13:19;;;;;;;1.63;0.60;;;;;;;24.48;59.45;102198.66;5118542;28;20048;-85
2022/07/08 11:15:46;;;;;;;1.10;0.40;;;;;;;24.69;59.90;102172.16;5111631;28;20107;-86
2022/07/08 11:18:25;;;;;;;1.17;0.52;;;;;;;25.22;57.73;102157.47;5106957;28;20431;-87
2022/07/08 11:21:00;;;;;;;1.98;0.57;;;;;;;25.00;57.90;102192.13;5106491;28;20056;-87
2022/07/08 11:23:29;;;;;;;0.55;0.40;;;;;;;25.38;57.40;102172.25;5105443;28;20137;-86
2022/07/08 11:25:59;;;;;;;0.77;0.50;;;;;;;25.76;55.12;102187.16;5110169;28;20055;-86
2022/07/08 11:28:26;;;;;;;0.50;0.50;;;;;;;25.68;54.99;102167.28;5110787;27;20114;-87
2022/07/08 11:30:54;;;;;;;1.70;0.32;;;;;;;26.25;54.30;102194.94;5111057;28;20446;-86
2022/07/08 11:33:38;;;;;;;1.05;0.47;;;;;;;25.78;53.98;102173.59;5119087;27;20142;-85